Latest Coastal Weather Observations for Orbost

IDV60701

Issued at 5:21 pm EDT Monday 22 December 2014 (issued every 10 minutes, with the page automatically refreshed every 10 minutes)

About coastal observations | Map of coastal stations | Coastal observations for VIC | Marine services | Other Formats
Station Details ID: 084145 Name: ORBOST Lat: -37.69 Lon: 148.47 Height: 62.65 m
Data from the previous 72 hours. | See also: Recent months at Orbost
Date/Time
EDT
Temp

°C
Wind Pressure Rain
since 9am
mm
Weather Cloud Vis
km
Sea
Height
m
Swell
Dir
 
Speed
knots
Gust
knots
hPa Trend Height
m
Period
s
Dir
22/05:00pm 30.1 E 3 4 1008.2 - 0.0 - - - - - - -
22/04:30pm 29.2 ESE 3 5 1008.7 - 0.0 - - - - - - -
22/04:00pm 29.4 SSE 5 9 1008.8 - 0.0 - - - - - - -
22/03:30pm 29.3 SSE 5 9 1009.1 - 0.0 - - - - - - -
22/03:00pm 29.4 SE 6 10 1009.4 - 0.0 - - - - - - -
22/02:30pm 28.4 SSE 6 10 1010.0 - 0.0 - - - - - - -
22/02:00pm 28.4 SSE 6 11 1010.5 - 0.0 - - - - - - -
22/01:30pm 28.1 SSE 6 9 1010.8 - 0.0 - - - - - - -
22/01:00pm 28.3 SE 5 9 1011.5 - 0.0 - - - - - - -
22/12:30pm 28.0 SSE 5 10 1012.1 - 0.0 - - - - - - -
22/12:00pm 27.8 SSE 5 9 1012.4 - 0.0 - - - - - - -
22/11:30am 28.7 S 4 7 1012.3 - 0.0 - - - - - - -
22/11:00am 27.9 S 4 6 1012.5 - 0.0 - - - - - - -
22/10:30am 27.0 S 2 4 1012.8 - 0.0 - - - - - - -
22/10:00am 25.9 S 2 3 1012.9 - 0.0 - - - - - - -
22/09:30am 25.4 SSW 1 3 1013.1 - 0.0 - - - - - - -
22/09:00am 23.8 SSW 1 2 1013.4 - 0.0 - - - - - - -
22/08:30am 22.5 SW 1 2 1013.4 - 0.0 - - - - - - -
22/08:00am 21.0 WSW 1 2 1013.1 - 0.0 - - - - - - -
22/07:30am 19.9 CALM 0 0 1012.9 - 0.0 - - - - - - -
22/07:00am 18.3 CALM 0 0 1012.8 - 0.0 - - - - - - -
22/06:30am 17.9 E 1 2 1012.6 - 0.0 - - - - - - -
22/06:00am 16.1 N 3 3 1012.5 - 0.0 - - - - - - -
22/05:30am 15.8 CALM 0 2 1012.4 - 0.0 - - - - - - -
22/05:00am 15.9 CALM 0 0 1012.4 - 0.0 - - - - - - -
22/04:30am 16.1 CALM 0 2 1012.2 - 0.0 - - - - - - -
22/04:00am 19.0 NNE 4 6 1011.8 - 0.0 - - - - - - -
22/03:30am 18.3 N 2 3 1012.1 - 0.0 - - - - - - -
22/03:00am 19.5 NE 2 3 1012.8 - 0.0 - - - - - - -
22/02:30am 17.1 CALM 0 2 1013.1 - 0.0 - - - - - - -
22/02:00am 17.2 E 1 2 1013.4 - 0.0 - - - - - - -
22/01:30am 17.1 E 2 3 1013.7 - 0.0 - - - - - - -
22/01:00am 17.2 E 1 3 1013.9 - 0.0 - - - - - - -
22/12:30am 18.3 CALM 0 0 1013.6 - 0.0 - - - - - - -
22/12:00am 18.9 CALM 0 0 1013.6 - 0.0 - - - - - - -
 
Date/Time
EDT
Temp

°C
Wind Pressure Rain
since 9am
mm
Weather Cloud Vis
km
Sea
Height
m
Swell
Dir
 
Speed
knots
Gust
knots
hPa Trend Height
m
Period
s
Dir
21/11:30pm 18.9 CALM 0 0 1013.5 - 0.0 - - - - - - -
21/11:00pm 20.0 CALM 0 0 1013.4 - 0.0 - - - - - - -
21/10:30pm 21.4 NE 2 3 1013.5 - 0.0 - - - - - - -
21/10:00pm 22.0 NE 3 4 1013.9 - 0.0 - - - - - - -
21/09:30pm 21.8 ENE 3 5 1013.6 - 0.0 - - - - - - -
21/09:00pm 21.7 NE 3 4 1013.6 - 0.0 - - - - - - -
21/08:30pm 22.7 ENE 2 3 1013.4 - 0.0 - - - - - - -
21/08:00pm 23.7 CALM 0 2 1013.4 - 0.0 - - - - - - -
21/07:30pm 25.8 ENE 2 3 1013.4 - 0.0 - - - - - - -
21/07:00pm 26.0 SE 1 3 1013.4 - 0.0 - - - - - - -
21/06:30pm 26.0 E 2 3 1013.2 - 0.0 - - - - - - -
21/06:00pm 26.3 S 3 5 1013.3 - 0.0 - - - - - - -
21/05:30pm 26.6 S 3 6 1013.2 - 0.0 - - - - - - -
21/05:00pm 26.4 ESE 2 4 1013.3 - 0.0 - - - - - - -
21/04:30pm 25.9 S 3 6 1013.7 - 0.0 - - - - - - -
21/04:00pm 25.6 SE 3 7 1013.7 - 0.0 - - - - - - -
21/03:30pm 24.8 SSE 4 7 1014.1 - 0.0 - - - - - - -
21/03:00pm 24.3 SSE 5 8 1014.4 - 0.0 - - - - - - -
21/02:30pm 24.4 SSE 5 9 1014.4 - 0.0 - - - - - - -
21/02:00pm 23.8 S 6 9 1014.6 - 0.0 - - - - - - -
21/01:30pm 23.3 S 6 9 1014.7 - 0.0 - - - - - - -
21/01:00pm 23.4 S 6 10 1014.9 - 0.0 - - - - - - -
21/12:30pm 23.0 S 6 9 1015.0 - 0.0 - - - - - - -
21/12:00pm 22.5 S 6 8 1015.3 - 0.0 - - - - - - -
21/11:30am 22.8 SSE 4 7 1015.3 - 0.0 - - - - - - -
21/11:00am 22.3 SSE 4 7 1015.6 - 0.0 - - - - - - -
21/10:30am 21.8 SE 3 6 1015.7 - 0.0 - - - - - - -
21/10:00am 20.8 ENE 3 6 1016.0 - 0.0 - - - - - - -
21/09:30am 19.9 SE 2 3 1016.5 - 0.0 - - - - - - -
21/09:00am 18.1 S 2 3 1016.8 - 0.0 - - - - - - -
21/08:30am 16.9 SSW 1 2 1016.8 - 0.0 - - - - - - -
21/08:00am 15.3 SSW 2 3 1016.5 - 0.0 - - - - - - -
21/07:30am 14.1 CALM 0 0 1015.9 - 0.0 - - - - - - -
21/07:00am 13.0 CALM 0 0 1015.6 - 0.0 - - - - - - -
21/06:30am 12.1 CALM 0 0 1015.6 - 0.0 - - - - - - -
21/06:00am 11.2 N 2 3 1015.6 - 0.0 - - - - - - -
21/05:30am 10.6 CALM 0 0 1015.5 - 0.0 - - - - - - -
21/05:00am 11.2 CALM 0 0 1015.6 - 0.0 - - - - - - -
21/04:30am 11.3 CALM 0 0 1015.7 - 0.0 - - - - - - -
21/04:00am 11.6 CALM 0 0 1015.9 - 0.0 - - - - - - -
21/03:30am 11.4 CALM 0 0 1016.2 - 0.0 - - - - - - -
21/03:00am 11.5 CALM 0 0 1016.5 - 0.0 - - - - - - -
21/02:30am 11.9 CALM 0 0 1016.8 - 0.0 - - - - - - -
21/02:00am 11.9 CALM 0 0 1017.0 - 0.0 - - - - - - -
21/01:30am 12.4 CALM 0 0 1017.2 - 0.0 - - - - - - -
21/01:00am 12.4 CALM 0 0 1017.4 - 0.0 - - - - - - -
21/12:30am 12.4 CALM 0 0 1017.6 - 0.0 - - - - - - -
21/12:00am 12.8 NNE 2 3 1017.8 - 0.0 - - - - - - -
 
Date/Time
EDT
Temp

°C
Wind Pressure Rain
since 9am
mm
Weather Cloud Vis
km
Sea
Height
m
Swell
Dir
 
Speed
knots
Gust
knots
hPa Trend Height
m
Period
s
Dir
20/11:30pm 13.3 N 3 4 1018.0 - 0.0 - - - - - - -
20/11:00pm 13.4 N 3 4 1018.1 - 0.0 - - - - - - -
20/10:30pm 13.6 N 2 3 1018.2 - 0.0 - - - - - - -
20/10:00pm 13.8 N 2 3 1018.4 - 0.0 - - - - - - -
20/09:30pm 14.4 CALM 0 0 1018.3 - 0.0 - - - - - - -
20/09:00pm 15.4 S 1 2 1017.9 - 0.0 - - - - - - -
20/08:30pm 16.1 S 2 3 1017.8 - 0.0 - - - - - - -
20/08:00pm 17.1 S 2 4 1017.7 - 0.0 - - - - - - -
20/07:30pm 17.9 SSE 3 5 1017.4 - 0.0 - - - - - - -
20/07:00pm 18.3 SSE 3 5 1017.1 - 0.0 - - - - - - -
20/06:30pm 18.8 SSE 3 7 1016.9 - 0.0 - - - - - - -
20/06:00pm 18.8 SSE 4 8 1016.8 - 0.0 - - - - - - -
20/05:30pm 19.1 SSE 5 10 1016.7 - 0.0 - - - - - - -
20/05:00pm 19.6 SSE 5 8 1016.6 - 0.0 - - - - - - -
20/04:30pm 19.9 SSE 5 9 1016.8 - 0.0 - - - - - - -
20/04:00pm 19.7 S 6 10 1017.1 - 0.0 - - - - - - -
20/03:30pm 19.8 S 6 11 1017.2 - 0.0 - - - - - - -
20/03:00pm 19.7 SSE 5 9 1017.4 - 0.0 - - - - - - -
20/02:30pm 19.2 SSE 6 8 1017.5 - 0.0 - - - - - - -
20/02:00pm 19.1 S 6 10 1017.6 - 0.0 - - - - - - -
20/01:30pm 19.1 SSE 6 10 1017.6 - 0.0 - - - - - - -
20/01:00pm 18.4 S 6 11 1017.9 - 0.0 - - - - - - -
20/12:30pm 19.5 SW 5 11 1018.0 - 0.0 - - - - - - -
20/12:00pm 18.7 SW 6 11 1018.1 - 0.0 - - - - - - -
20/11:30am 18.1 SW 5 9 1018.4 - 0.0 - - - - - - -
20/11:00am 18.2 WSW 5 9 1018.3 - 0.0 - - - - - - -
20/10:30am 17.7 W 5 11 1018.2 - 0.0 - - - - - - -
20/10:00am 17.2 W 6 9 1018.3 - 0.0 - - - - - - -
20/09:30am 16.7 WNW 5 9 1018.4 - 0.0 - - - - - - -
20/09:00am 16.1 W 6 9 1018.5 - 0.0 - - - - - - -
20/08:30am 15.6 WNW 5 7 1018.4 - 0.0 - - - - - - -
20/08:00am 14.6 NW 5 10 1018.3 - 0.0 - - - - - - -
20/07:30am 13.8 NW 4 8 1018.1 - 0.0 - - - - - - -
20/07:00am 12.6 NNW 5 7 1018.0 - 0.0 - - - - - - -
20/06:30am 10.8 N 5 6 1017.8 - 0.0 - - - - - - -
20/06:00am 9.7 NNW 4 5 1017.7 - 0.0 - - - - - - -
20/05:30am 9.9 N 4 5 1017.5 - 0.0 - - - - - - -
20/05:00am 9.8 NNW 4 5 1017.5 - 0.0 - - - - - - -
20/04:30am 10.0 N 3 4 1017.4 - 0.0 - - - - - - -
20/04:00am 10.1 NNW 4 5 1017.4 - 0.0 - - - - - - -
20/03:30am 10.7 NW 3 4 1017.4 - 0.0 - - - - - - -
20/03:00am 11.0 WNW 2 2 1017.6 - 0.0 - - - - - - -
20/02:30am 11.8 NNW 4 6 1017.6 - 0.0 - - - - - - -
20/02:00am 12.0 NNW 5 6 1017.7 - 0.0 - - - - - - -
20/01:30am 11.7 NNW 4 6 1018.0 - 0.0 - - - - - - -
20/01:00am 12.2 NNW 4 5 1018.2 - 0.0 - - - - - - -
20/12:30am 12.2 N 4 5 1018.5 - 0.0 - - - - - - -
20/12:00am 12.7 N 4 5 1018.7 - 0.0 - - - - - - -
 
Date/Time
EDT
Temp

°C
Wind Pressure Rain
since 9am
mm
Weather Cloud Vis
km
Sea
Height
m
Swell
Dir
 
Speed
knots
Gust
knots
hPa Trend Height
m
Period
s
Dir
19/11:30pm 12.3 N 4 5 1018.9 - 0.0 - - - - - - -
19/11:00pm 13.1 N 3 3 1019.1 - 0.0 - - - - - - -
19/10:30pm 13.5 N 2 3 1019.1 - 0.0 - - - - - - -
19/10:00pm 13.9 NW 2 2 1019.1 - 0.0 - - - - - - -
19/09:30pm 14.1 WNW 1 2 1018.9 - 0.0 - - - - - - -
19/09:00pm 14.4 W 2 2 1018.9 - 0.0 - - - - - - -
19/08:30pm 14.7 WSW 2 4 1018.7 - 0.0 - - - - - - -
19/08:00pm 14.8 SSW 5 7 1018.4 - 0.0 - - - - - - -
19/07:30pm 15.1 SW 6 9 1018.2 - 0.0 - - - - - - -
19/07:00pm 15.6 SSW 7 11 1017.7 - 0.0 - - - - - - -
19/06:30pm 16.3 SW 7 12 1017.3 - 0.0 - - - - - - -
19/06:00pm 16.6 SSW 8 13 1017.1 - 0.0 - - - - - - -
19/05:30pm 17.4 SSW 9 12 1016.7 - 0.0 - - - - - - -

Other Formats:

Comma delimited format used in spreadsheet applications
http://www.bom.gov.au/fwo/IDV60701/IDV60701.95918.axf

JavaScript Object Notation format (JSON) in row-major order
http://www.bom.gov.au/fwo/IDV60701/IDV60701.95918.json